createdAt,value
2017-06-22T01:04:49.555Z,99.90
2017-06-22T05:20:50.551Z,99.90
2017-06-22T05:23:18.034Z,99.90
2017-06-22T05:25:45.738Z,99.90
2017-06-22T05:28:13.943Z,91.30
2017-06-22T05:30:41.478Z,66.30
2017-06-22T05:33:09.043Z,46.30
2017-06-22T05:35:36.756Z,42.90
2017-06-22T05:38:04.272Z,44.70
2017-06-22T05:40:31.809Z,41.60
2017-06-22T05:42:59.721Z,39.80
2017-06-22T05:45:27.219Z,32.80
2017-06-22T05:47:55.740Z,28.80
2017-06-22T05:50:23.500Z,30.40
2017-06-22T05:52:51.438Z,30.70
2017-06-22T05:55:18.951Z,31.80
2017-06-22T05:57:46.821Z,28.60
2017-06-22T06:00:14.332Z,26.90
2017-06-22T06:02:42.216Z,26.70
2017-06-22T06:05:10.072Z,23.80
2017-06-22T06:07:37.819Z,26.80
2017-06-22T06:10:05.433Z,26.10
2017-06-22T06:12:33.368Z,26.20
2017-06-22T06:15:00.860Z,27.40
2017-06-22T06:17:28.428Z,25.10
2017-06-22T06:19:56.963Z,25.20
2017-06-22T06:22:24.728Z,24.20
2017-06-22T06:24:52.276Z,23.70
2017-06-22T06:27:19.846Z,23.20
2017-06-22T06:29:47.599Z,24.10
2017-06-22T06:32:15.128Z,24.60
2017-06-22T06:34:42.925Z,20.80
2017-06-22T06:37:10.488Z,18.80
2017-06-22T06:39:38.547Z,17.10
2017-06-22T06:42:06.030Z,19.20
2017-06-22T06:44:33.538Z,19.40
2017-06-22T06:47:01.319Z,14.60
2017-06-22T06:49:28.854Z,9.70
2017-06-22T06:51:56.374Z,9.30
2017-06-22T06:54:24.426Z,11.60
2017-06-22T06:56:52.023Z,14.20
2017-06-22T06:59:19.521Z,14.40
2017-06-22T07:01:47.032Z,15.90
2017-06-22T07:04:15.337Z,7.40
2017-06-22T07:06:42.887Z,7.20
2017-06-22T07:09:10.371Z,7.60
2017-06-22T07:11:37.880Z,7.10
2017-06-22T07:14:05.420Z,5.50
2017-06-22T07:16:33.950Z,6.00
2017-06-22T07:19:01.476Z,5.10
2017-06-22T07:21:29.448Z,4.70
2017-06-22T07:23:57.224Z,3.70
2017-06-22T07:26:24.842Z,5.30
2017-06-22T07:28:53.087Z,3.40
2017-06-22T07:31:21.395Z,3.30
2017-06-22T07:33:49.644Z,2.70
2017-06-22T07:36:17.671Z,2.80
2017-06-22T07:38:45.582Z,3.30
2017-06-22T07:41:13.101Z,2.60
2017-06-22T07:43:40.619Z,4.60
2017-06-22T07:46:09.553Z,4.90
2017-06-22T07:48:37.055Z,4.80
2017-06-22T07:51:04.571Z,2.10
2017-06-22T07:53:32.148Z,3.00
2017-06-22T07:55:59.880Z,2.30
2017-06-22T07:58:27.651Z,2.10
2017-06-22T08:00:55.216Z,2.20
2017-06-22T08:03:22.935Z,1.30
2017-06-22T08:05:50.731Z,2.80
2017-06-22T08:08:18.220Z,1.30
2017-06-22T08:10:46.063Z,4.80
2017-06-22T08:13:16.226Z,3.60
2017-06-22T08:15:45.392Z,4.30
2017-06-22T08:18:13.118Z,3.80
2017-06-22T08:20:40.679Z,2.80
2017-06-22T08:23:09.296Z,4.20
2017-06-22T08:25:36.853Z,5.60
2017-06-22T08:28:04.399Z,5.00
2017-06-22T08:30:31.908Z,5.80
2017-06-22T08:32:59.799Z,1.60
2017-06-22T08:35:27.288Z,2.10
2017-06-22T08:37:54.968Z,1.50
2017-06-22T08:40:23.250Z,3.50
2017-06-22T08:42:51.625Z,4.00
2017-06-22T08:45:19.103Z,3.60
2017-06-22T08:47:46.639Z,4.00
2017-06-22T08:50:14.906Z,3.50
2017-06-22T08:52:43.167Z,4.00
2017-06-22T08:55:10.672Z,3.90
2017-06-22T08:57:38.222Z,3.30
2017-06-22T09:00:05.868Z,3.60
2017-06-22T09:02:36.256Z,3.40
2017-06-22T09:05:03.778Z,4.20
2017-06-22T09:07:31.424Z,2.80
2017-06-22T09:09:59.241Z,1.60
2017-06-22T09:12:26.758Z,1.50
2017-06-22T09:14:54.450Z,3.90
2017-06-22T09:17:22.013Z,3.20
2017-06-22T09:19:49.948Z,4.50
2017-06-22T09:22:18.200Z,5.90
2017-06-22T09:24:46.150Z,4.00
2017-06-22T09:27:14.051Z,1.90
2017-06-22T09:29:41.809Z,3.80
2017-06-22T09:32:09.649Z,5.50
2017-06-22T09:34:37.650Z,8.20
2017-06-22T09:37:05.257Z,10.00
2017-06-22T09:39:33.535Z,11.50
2017-06-22T09:42:02.353Z,12.60
2017-06-22T09:44:30.347Z,12.60
2017-06-22T09:46:57.900Z,12.60
2017-06-22T09:49:25.910Z,12.30
2017-06-22T09:51:54.017Z,13.50
2017-06-22T09:54:21.620Z,10.40
2017-06-22T09:56:49.208Z,11.30
2017-06-22T09:59:16.824Z,10.40
2017-06-22T10:01:44.444Z,11.80
2017-06-22T10:04:12.035Z,10.30
2017-06-22T10:06:39.608Z,10.40
2017-06-22T10:09:07.160Z,10.30
2017-06-22T10:11:34.660Z,11.30
2017-06-22T10:14:02.508Z,11.00
2017-06-22T10:16:31.222Z,11.70
2017-06-22T10:18:58.832Z,11.70
2017-06-22T10:21:27.455Z,11.80
2017-06-22T10:23:54.974Z,7.90
2017-06-22T10:26:22.696Z,9.80
2017-06-22T10:28:50.218Z,8.20
2017-06-22T10:31:17.738Z,9.70
2017-06-22T10:33:45.230Z,9.70
2017-06-22T10:36:12.767Z,9.20
2017-06-22T10:38:41.288Z,9.70
2017-06-22T10:41:10.366Z,9.40
2017-06-22T10:43:39.251Z,10.50
2017-06-22T10:46:07.358Z,8.10
2017-06-22T10:48:35.343Z,9.80
2017-06-22T10:51:03.827Z,10.40
2017-06-22T10:53:31.419Z,9.20
2017-06-22T10:55:59.708Z,12.40
2017-06-22T10:58:27.343Z,12.30
2017-06-22T11:00:56.138Z,12.50
2017-06-22T11:03:23.942Z,12.40
2017-06-22T11:05:51.491Z,12.40
2017-06-22T11:08:19.275Z,9.50
2017-06-22T11:10:46.869Z,10.90
2017-06-22T11:13:14.432Z,11.70
2017-06-22T11:15:42.736Z,11.50
2017-06-22T11:18:10.268Z,11.50
2017-06-22T11:20:38.881Z,11.60
2017-06-22T11:23:07.304Z,11.50
2017-06-22T11:25:34.989Z,12.60
2017-06-22T11:28:02.551Z,12.90
2017-06-22T11:30:30.323Z,10.70
2017-06-22T11:32:58.863Z,11.30
2017-06-22T11:35:26.403Z,8.60
2017-06-22T11:37:53.921Z,10.80
2017-06-22T11:40:21.423Z,9.20
2017-06-22T11:42:49.020Z,11.30
2017-06-22T11:45:16.603Z,11.60
2017-06-22T11:47:44.386Z,12.40
2017-06-22T11:50:12.036Z,8.90
2017-06-22T11:52:40.025Z,8.90
2017-06-22T11:55:07.535Z,8.90
2017-06-22T11:57:35.074Z,5.50
2017-06-22T12:00:03.734Z,3.70
2017-06-22T12:02:31.779Z,3.80
2017-06-22T12:04:59.284Z,4.30
2017-06-22T12:07:26.775Z,6.20
2017-06-22T12:09:54.344Z,6.20
2017-06-22T12:12:21.876Z,7.90
2017-06-22T12:14:49.483Z,8.00
2017-06-22T12:17:17.124Z,6.60
2017-06-22T12:19:44.607Z,7.30
2017-06-22T12:22:12.283Z,6.80
2017-06-22T12:24:41.057Z,6.60
2017-06-22T12:27:08.840Z,6.50
2017-06-22T12:29:37.300Z,6.90
2017-06-22T12:32:05.055Z,6.80
2017-06-22T12:34:32.535Z,5.70
2017-06-22T12:37:00.272Z,4.30
2017-06-22T12:39:27.927Z,5.50
2017-06-22T12:44:30.026Z,6.00
2017-06-22T12:46:57.794Z,5.90
2017-06-22T12:49:25.343Z,5.40
2017-06-22T12:51:53.615Z,4.30
2017-06-22T12:54:21.389Z,4.20
2017-06-22T12:56:49.105Z,2.40
2017-06-22T12:59:17.071Z,2.60
2017-06-22T13:01:44.657Z,3.40
2017-06-22T13:04:12.379Z,5.20
2017-06-22T13:06:40.491Z,5.30
2017-06-22T13:09:08.055Z,3.80
2017-06-22T13:11:36.452Z,4.10
2017-06-22T13:14:04.422Z,4.80
2017-06-22T13:16:32.147Z,5.30
2017-06-22T13:18:59.631Z,4.80
2017-06-22T13:21:27.323Z,3.70
2017-06-22T13:23:55.246Z,4.00
2017-06-22T13:26:22.806Z,5.00
2017-06-22T13:28:50.332Z,5.40
2017-06-22T13:31:18.052Z,7.20
2017-06-22T13:33:45.859Z,5.80
2017-06-22T13:36:13.368Z,6.10
2017-06-22T13:38:40.945Z,5.00
2017-06-22T13:41:08.572Z,6.20
2017-06-22T13:43:36.060Z,4.90
2017-06-22T13:46:03.696Z,1.50
2017-06-22T13:48:31.895Z,1.80
2017-06-22T13:50:59.452Z,1.00
2017-06-22T13:53:27.152Z,1.90
2017-06-22T13:55:54.683Z,1.00
2017-06-22T13:58:22.259Z,1.00
2017-06-22T14:00:49.836Z,1.00
2017-06-22T14:03:17.322Z,1.00
2017-06-22T14:05:45.698Z,1.00
2017-06-22T14:08:13.621Z,1.00
2017-06-22T14:10:46.363Z,1.00
2017-06-22T14:13:14.784Z,1.00
2017-06-22T14:15:44.074Z,1.00
2017-06-22T14:18:11.771Z,1.00
2017-06-22T14:20:39.572Z,1.00
2017-06-22T14:23:07.154Z,1.00
2017-06-22T14:25:34.842Z,1.70
2017-06-22T14:28:02.644Z,2.70
2017-06-22T14:30:31.420Z,2.60
2017-06-22T14:32:59.243Z,3.70
2017-06-22T14:35:27.771Z,2.60
2017-06-22T14:37:55.858Z,2.50
2017-06-22T14:40:23.372Z,2.80
2017-06-22T14:42:51.503Z,2.80
2017-06-22T14:45:19.140Z,1.30
2017-06-22T14:47:46.725Z,2.30
2017-06-22T14:50:14.372Z,2.70
2017-06-22T14:52:42.374Z,1.00
2017-06-22T14:55:09.930Z,1.00
2017-06-22T14:57:38.343Z,1.00
2017-06-22T15:00:06.091Z,1.00
2017-06-22T15:02:33.776Z,2.40
2017-06-22T15:05:01.287Z,1.10
2017-06-22T15:07:29.032Z,2.80
2017-06-22T15:09:56.540Z,4.90
2017-06-22T15:12:24.371Z,4.80
2017-06-22T15:14:52.160Z,4.50
2017-06-22T15:17:20.543Z,3.00
2017-06-22T15:19:48.368Z,2.40
2017-06-22T15:22:16.624Z,2.30
2017-06-22T15:24:44.547Z,2.30
2017-06-22T15:27:12.044Z,3.10
2017-06-22T15:29:39.715Z,3.30
2017-06-22T15:32:07.284Z,3.70
2017-06-22T15:34:35.768Z,5.60
2017-06-22T15:37:03.351Z,5.60
2017-06-22T15:39:31.900Z,6.00
2017-06-22T15:41:59.432Z,8.10
2017-06-22T15:44:27.104Z,7.00
2017-06-22T15:46:55.416Z,5.90
2017-06-22T15:49:23.229Z,6.00
2017-06-22T15:51:50.716Z,7.00
2017-06-22T15:54:18.658Z,5.50
2017-06-22T15:56:47.200Z,6.70
2017-06-22T15:59:15.371Z,6.60
2017-06-22T16:01:42.872Z,7.20
2017-06-22T16:04:10.424Z,7.60
2017-06-22T16:06:42.672Z,13.20
2017-06-22T16:09:10.192Z,12.40
2017-06-22T16:11:37.798Z,17.10
2017-06-22T16:14:05.525Z,20.70
2017-06-22T16:16:33.994Z,24.20
2017-06-22T16:19:02.080Z,29.30
2017-06-22T16:21:29.835Z,32.10
2017-06-22T16:23:57.326Z,33.70
2017-06-22T16:26:25.117Z,36.30
2017-06-22T16:28:53.371Z,37.90
2017-06-22T16:31:21.132Z,37.90
2017-06-22T16:33:48.771Z,39.00
2017-06-22T16:36:16.303Z,38.40
2017-06-22T16:38:44.992Z,41.40
2017-06-22T16:41:12.587Z,45.60
2017-06-22T16:43:40.417Z,45.30
2017-06-22T16:46:09.075Z,45.60
2017-06-22T16:48:36.967Z,48.70
2017-06-22T16:51:04.721Z,51.40
2017-06-22T16:53:32.396Z,51.10
2017-06-22T16:56:02.493Z,50.50
2017-06-22T16:58:31.428Z,49.80
2017-06-22T17:00:59.257Z,53.30
2017-06-22T17:03:26.882Z,55.90
2017-06-22T17:05:55.914Z,55.50
2017-06-22T17:08:24.243Z,63.90
2017-06-22T17:10:52.416Z,62.90
2017-06-22T17:13:20.707Z,54.70
2017-06-22T17:15:48.335Z,62.30
2017-06-22T17:18:16.151Z,68.10
2017-06-22T17:20:43.882Z,70.40
2017-06-22T17:23:12.332Z,70.70
2017-06-22T17:25:40.892Z,74.10
2017-06-22T17:28:08.582Z,74.00
2017-06-22T17:30:36.307Z,81.50
2017-06-22T17:33:04.239Z,90.00
2017-06-22T17:35:31.772Z,95.70
2017-06-22T17:37:59.297Z,98.20
2017-06-22T17:40:26.958Z,99.90
2017-06-22T17:42:54.495Z,99.90
2017-06-22T17:45:22.048Z,99.90
2017-06-22T17:50:18.755Z,99.90
2017-06-22T18:37:30.324Z,99.90
2017-06-22T18:39:57.838Z,99.90
2017-06-22T18:44:54.351Z,99.90
2017-06-22T18:47:21.885Z,99.90
2017-06-22T18:49:49.419Z,99.90
2017-06-22T18:52:17.821Z,99.90
2017-06-22T18:54:46.407Z,99.90
2017-06-22T18:57:13.903Z,99.90
2017-06-22T18:59:42.407Z,99.90
2017-06-22T19:02:10.907Z,99.90
2017-06-22T19:04:38.436Z,99.90
2017-06-22T19:07:05.939Z,99.90
2017-06-22T19:09:33.591Z,99.90
2017-06-22T19:16:59.218Z,99.90
2017-06-22T19:19:27.991Z,99.90
2017-06-22T19:21:56.079Z,99.90
2017-06-22T19:24:24.260Z,99.90
2017-06-22T19:26:51.876Z,99.90
2017-06-22T19:29:20.253Z,99.90
2017-06-22T19:31:49.237Z,99.90
2017-06-22T19:34:16.735Z,99.90
2017-06-22T19:36:44.315Z,99.90
2017-06-22T19:39:11.803Z,99.90
2017-06-22T19:41:39.332Z,99.90
2017-06-22T19:44:06.892Z,99.90
2017-06-22T19:46:34.424Z,99.90
2017-06-22T19:49:01.916Z,99.90
2017-06-22T19:51:29.476Z,99.90
2017-06-22T19:53:57.029Z,99.90
2017-06-22T19:56:24.950Z,99.90
2017-06-22T19:58:53.766Z,99.90
2017-06-22T20:01:21.514Z,99.90
2017-06-22T20:03:49.056Z,99.90
2017-06-22T20:06:16.580Z,99.90
2017-06-22T20:08:44.360Z,99.90
2017-06-22T20:11:12.128Z,99.90
2017-06-22T20:13:40.795Z,99.90
2017-06-22T20:16:09.053Z,99.90
2017-06-22T20:18:36.567Z,99.90
2017-06-22T20:21:04.343Z,99.90
2017-06-22T20:23:32.209Z,99.90
2017-06-22T20:26:00.593Z,99.90
2017-06-22T20:28:28.213Z,99.90
2017-06-22T20:30:55.700Z,99.90
2017-06-22T20:33:23.271Z,99.90
2017-06-22T20:35:50.819Z,99.90
2017-06-22T20:38:18.332Z,99.90
2017-06-22T20:40:45.871Z,99.90
2017-06-22T20:43:14.123Z,99.90
2017-06-22T20:45:41.628Z,99.90
2017-06-22T20:48:09.151Z,99.90
2017-06-22T20:50:36.977Z,99.90
2017-06-22T20:53:04.524Z,99.90
2017-06-22T20:55:32.096Z,99.90
2017-06-22T20:57:59.587Z,99.90
2017-06-22T21:00:27.156Z,99.90
2017-06-22T21:02:55.422Z,99.90
2017-06-22T21:05:23.678Z,99.90
2017-06-22T21:07:51.514Z,99.90
2017-06-22T21:10:19.065Z,99.90
2017-06-22T21:12:46.679Z,99.90
2017-06-22T21:15:14.940Z,99.90
2017-06-22T21:17:42.710Z,99.90
2017-06-22T21:20:11.047Z,99.90
2017-06-22T21:22:39.356Z,99.90
2017-06-22T21:25:06.867Z,99.90
2017-06-22T21:27:34.410Z,99.90
2017-06-22T21:30:02.198Z,99.90
2017-06-22T21:32:29.956Z,99.90
2017-06-22T21:34:57.505Z,99.90
2017-06-22T21:37:25.411Z,99.90
2017-06-22T21:39:53.211Z,99.90
2017-06-22T21:42:20.699Z,99.90
2017-06-22T21:44:48.564Z,99.90
2017-06-22T21:50:08.285Z,99.90
2017-06-22T21:52:36.116Z,99.90
2017-06-22T21:55:03.618Z,99.90
2017-06-22T21:57:32.154Z,99.90
2017-06-22T21:59:59.917Z,99.90
2017-06-22T22:02:27.449Z,99.90
2017-06-22T22:04:55.094Z,99.90
2017-06-22T22:07:23.559Z,99.90
2017-06-22T22:12:20.977Z,99.90
2017-06-22T22:14:48.849Z,99.90
2017-06-22T23:04:27.741Z,99.90
2017-06-22T23:06:55.457Z,99.90
2017-06-22T23:09:23.141Z,99.90
2017-06-22T23:11:50.837Z,99.90
2017-06-22T23:14:18.473Z,99.90
2017-06-22T23:16:45.968Z,99.90
2017-06-22T23:19:13.498Z,99.90
2017-06-22T23:21:41.042Z,99.90
2017-06-22T23:24:08.593Z,99.90
2017-06-22T23:26:36.286Z,99.90
2017-06-22T23:29:03.809Z,99.90
2017-06-22T23:31:31.304Z,99.90
2017-06-22T23:33:58.821Z,99.90
2017-06-22T23:36:26.701Z,99.90
2017-06-22T23:38:54.225Z,99.90
2017-06-22T23:41:21.938Z,99.90
2017-06-22T23:43:49.506Z,99.90
2017-06-22T23:51:16.650Z,99.90
2017-06-22T23:53:44.236Z,99.90
2017-06-22T23:56:11.766Z,99.90
2017-06-22T23:58:39.360Z,99.90
